createdAt,value
2022-08-10T00:00:57.615Z,0.70
2022-08-10T00:03:26.773Z,0.60
2022-08-10T00:05:56.621Z,0.63
2022-08-10T00:08:26.165Z,0.60
2022-08-10T00:10:54.494Z,0.60
2022-08-10T00:13:23.815Z,0.57
2022-08-10T00:15:54.920Z,0.50
2022-08-10T00:18:28.897Z,0.60
2022-08-10T00:21:05.296Z,0.60
2022-08-10T00:23:33.855Z,0.50
2022-08-10T00:26:02.217Z,0.70
2022-08-10T00:28:30.130Z,0.60
2022-08-10T00:30:58.156Z,0.50
2022-08-10T00:33:26.015Z,0.70
2022-08-10T00:35:53.833Z,0.57
2022-08-10T00:38:23.041Z,0.40
2022-08-10T00:40:51.140Z,0.80
2022-08-10T00:43:23.295Z,0.47
2022-08-10T00:45:59.041Z,0.60
2022-08-10T00:48:29.464Z,0.70
2022-08-10T00:50:58.618Z,0.53
2022-08-10T00:53:28.323Z,0.60
2022-08-10T00:56:35.203Z,0.60
2022-08-10T00:58:45.007Z,0.57
2022-08-10T01:02:09.108Z,0.60
2022-08-10T01:04:54.309Z,0.80
2022-08-10T01:07:00.219Z,0.80
2022-08-10T01:09:36.134Z,0.67
2022-08-10T01:12:47.587Z,0.60
2022-08-10T01:15:05.586Z,0.83
2022-08-10T01:17:50.319Z,0.70
2022-08-10T01:20:30.915Z,0.70
2022-08-10T01:23:32.526Z,0.50
2022-08-10T01:26:12.460Z,0.73
2022-08-10T01:29:08.856Z,0.70
2022-08-10T01:31:42.782Z,0.50
2022-08-10T01:34:14.575Z,0.60
2022-08-10T01:36:49.382Z,0.67
2022-08-10T01:39:23.988Z,0.60
2022-08-10T01:41:56.861Z,0.80
2022-08-10T01:44:30.348Z,0.70
2022-08-10T01:47:22.061Z,1.77
2022-08-10T01:49:51.641Z,0.77
2022-08-10T01:52:21.872Z,0.80
2022-08-10T01:54:52.071Z,0.90
2022-08-10T01:57:23.490Z,0.90
2022-08-10T02:00:02.082Z,0.50
2022-08-10T02:02:35.945Z,0.90
2022-08-10T02:05:06.090Z,1.10
2022-08-10T02:07:38.732Z,1.03
2022-08-10T02:10:11.780Z,0.73
2022-08-10T02:12:42.127Z,0.60
2022-08-10T02:15:14.414Z,0.70
2022-08-10T02:18:00.595Z,0.80
2022-08-10T02:20:34.644Z,2.10
2022-08-10T02:23:08.620Z,1.20
2022-08-10T02:25:41.034Z,0.70
2022-08-10T02:28:29.869Z,0.80
2022-08-10T02:31:02.561Z,0.80
2022-08-10T02:33:36.897Z,0.80
2022-08-10T02:36:08.198Z,1.00
2022-08-10T02:38:58.622Z,0.90
2022-08-10T02:45:00.820Z,1.03
2022-08-10T02:45:23.253Z,1.00
2022-08-10T02:47:22.717Z,0.70
2022-08-10T02:50:00.716Z,0.70
2022-08-10T02:52:36.690Z,1.10
2022-08-10T02:55:17.454Z,0.70
2022-08-10T02:58:12.880Z,0.70
2022-08-10T03:00:45.391Z,0.87
2022-08-10T03:03:19.113Z,0.90
2022-08-10T03:05:50.286Z,0.80
2022-08-10T03:08:22.681Z,0.80
2022-08-10T03:10:51.712Z,0.80
2022-08-10T03:13:21.654Z,0.60
2022-08-10T03:15:52.418Z,1.03
2022-08-10T03:18:22.695Z,1.17
2022-08-10T03:20:53.931Z,0.80
2022-08-10T03:23:25.120Z,0.80
2022-08-10T03:25:56.552Z,0.87
2022-08-10T03:28:32.728Z,0.70
2022-08-10T03:31:02.758Z,0.70
2022-08-10T03:33:34.532Z,0.67
2022-08-10T03:36:41.865Z,1.00
2022-08-10T03:38:52.796Z,0.60
2022-08-10T03:41:27.139Z,1.17
2022-08-10T03:43:59.842Z,0.63
2022-08-10T03:46:30.538Z,0.77
2022-08-10T03:49:01.381Z,0.87
2022-08-10T03:51:31.910Z,0.80
2022-08-10T03:54:02.905Z,0.90
2022-08-10T03:56:33.115Z,1.00
2022-08-10T03:59:02.425Z,0.70
2022-08-10T04:02:43.420Z,0.60
2022-08-10T04:04:23.636Z,0.87
2022-08-10T04:06:55.719Z,0.80
2022-08-10T04:09:25.179Z,1.00
2022-08-10T04:12:11.512Z,1.73
2022-08-10T04:14:49.690Z,0.80
2022-08-10T04:18:02.901Z,1.30
2022-08-10T04:20:12.902Z,2.30
2022-08-10T04:22:44.381Z,1.80
2022-08-10T04:25:14.621Z,1.43
2022-08-10T04:27:43.258Z,1.50
2022-08-10T04:30:12.456Z,1.20
2022-08-10T04:32:42.369Z,1.10
2022-08-10T04:35:11.945Z,1.50
2022-08-10T04:37:46.768Z,0.80
2022-08-10T04:40:29.056Z,0.80
2022-08-10T04:43:10.399Z,0.80
2022-08-10T04:45:48.894Z,0.80
2022-08-10T04:48:42.891Z,0.60
2022-08-10T04:51:17.130Z,0.90
2022-08-10T04:54:04.559Z,0.70
2022-08-10T04:56:41.347Z,0.53
2022-08-10T04:59:13.465Z,0.73
2022-08-10T05:02:22.251Z,0.70
2022-08-10T05:04:35.232Z,0.60
2022-08-10T05:07:10.744Z,0.87
2022-08-10T05:10:01.194Z,0.73
2022-08-10T05:12:29.527Z,0.63
2022-08-10T05:14:57.694Z,0.80
2022-08-10T05:17:25.745Z,0.80
2022-08-10T05:20:04.202Z,0.57
2022-08-10T05:22:39.540Z,0.60
2022-08-10T05:25:10.865Z,0.70
2022-08-10T05:27:41.491Z,0.90
2022-08-10T05:30:13.572Z,0.53
2022-08-10T05:32:57.959Z,1.17
2022-08-10T05:35:55.372Z,0.60
2022-08-10T05:38:18.784Z,0.77
2022-08-10T05:40:48.763Z,0.70
2022-08-10T05:43:21.247Z,1.10
2022-08-10T05:46:19.144Z,1.80
2022-08-10T05:48:55.249Z,0.70
2022-08-10T05:51:27.028Z,1.23
2022-08-10T05:54:01.060Z,1.20
2022-08-10T05:56:55.207Z,0.97
2022-08-10T06:00:32.895Z,0.83
2022-08-10T06:02:31.681Z,1.30
2022-08-10T06:05:06.264Z,1.10
2022-08-10T06:07:36.000Z,1.00
2022-08-10T06:10:10.070Z,1.30
2022-08-10T06:12:54.173Z,0.70
2022-08-10T06:15:51.892Z,1.03
2022-08-10T06:18:14.346Z,0.90
2022-08-10T06:20:43.603Z,1.20
2022-08-10T06:23:13.562Z,0.80
2022-08-10T06:26:12.027Z,0.77
2022-08-10T06:28:32.483Z,0.80
2022-08-10T06:31:02.956Z,0.80
2022-08-10T06:33:32.748Z,0.60
2022-08-10T06:36:02.411Z,2.17
2022-08-10T06:38:33.985Z,0.80
2022-08-10T06:41:09.027Z,1.13
2022-08-10T06:43:41.417Z,1.10
2022-08-10T06:46:16.637Z,0.97
2022-08-10T06:48:50.070Z,1.53
2022-08-10T06:51:23.868Z,1.10
2022-08-10T06:53:55.339Z,0.80
2022-08-10T06:56:37.844Z,1.13
2022-08-10T06:59:21.504Z,1.30
2022-08-10T07:01:55.500Z,1.20
2022-08-10T07:04:32.478Z,0.90
2022-08-10T07:07:03.940Z,1.20
2022-08-10T07:09:34.320Z,1.20
2022-08-10T07:12:07.571Z,0.90
2022-08-10T07:14:39.929Z,1.67
2022-08-10T07:17:16.123Z,1.60
2022-08-10T07:19:49.958Z,1.40
2022-08-10T07:23:27.155Z,1.43
2022-08-10T07:25:13.595Z,1.20
2022-08-10T07:28:00.303Z,1.73
2022-08-10T07:30:31.721Z,2.03
2022-08-10T07:33:02.522Z,1.40
2022-08-10T07:35:42.418Z,1.27
2022-08-10T07:38:18.391Z,1.40
2022-08-10T07:40:48.509Z,1.87
2022-08-10T07:43:18.814Z,1.83
2022-08-10T07:45:48.734Z,1.57
2022-08-10T07:48:21.159Z,1.63
2022-08-10T07:50:55.159Z,1.87
2022-08-10T07:53:27.526Z,1.20
2022-08-10T07:56:03.630Z,1.27
2022-08-10T07:58:48.332Z,1.30
2022-08-10T08:01:24.215Z,1.20
2022-08-10T08:04:05.648Z,1.20
2022-08-10T08:06:41.506Z,1.90
2022-08-10T08:09:10.164Z,1.07
2022-08-10T08:11:40.430Z,0.90
2022-08-10T08:14:10.218Z,1.20
2022-08-10T08:16:42.674Z,1.50
2022-08-10T08:19:37.474Z,1.47
2022-08-10T08:24:10.688Z,1.70
2022-08-10T08:24:53.801Z,2.87
2022-08-10T08:27:22.801Z,1.67
2022-08-10T08:29:52.814Z,2.13
2022-08-10T08:32:23.400Z,1.30
2022-08-10T08:34:57.586Z,1.13
2022-08-10T08:38:33.738Z,1.20
2022-08-10T08:40:19.690Z,1.20
2022-08-10T08:43:14.263Z,1.63
2022-08-10T08:46:02.337Z,1.15
2022-08-10T08:48:51.012Z,1.38
2022-08-10T08:52:07.203Z,1.30
2022-08-10T08:54:33.625Z,1.20
2022-08-10T08:57:07.289Z,3.10
2022-08-10T08:59:54.388Z,1.25
2022-08-10T09:02:40.485Z,1.92
2022-08-10T09:05:59.881Z,0.90
2022-08-10T09:08:52.842Z,1.40
2022-08-10T09:11:31.830Z,1.45
2022-08-10T09:14:06.335Z,1.05
2022-08-10T09:16:44.555Z,1.27
2022-08-10T09:19:36.256Z,1.30
2022-08-10T09:22:17.214Z,1.13
2022-08-10T09:24:55.256Z,1.48
2022-08-10T09:27:27.787Z,1.02
2022-08-10T09:29:57.919Z,1.77
2022-08-10T09:36:15.669Z,0.77
2022-08-10T09:36:19.791Z,0.93
2022-08-10T09:38:29.948Z,1.15
2022-08-10T09:41:13.313Z,2.55
2022-08-10T09:43:53.522Z,1.45
2022-08-10T09:46:42.517Z,0.82
2022-08-10T09:49:25.904Z,1.02
2022-08-10T09:52:13.871Z,1.85
2022-08-10T09:54:54.164Z,1.48
2022-08-10T09:57:55.101Z,2.00
2022-08-10T10:00:21.630Z,0.90
2022-08-10T10:03:01.582Z,1.05
2022-08-10T10:05:40.186Z,1.63
2022-08-10T10:08:28.180Z,1.15
2022-08-10T10:11:05.095Z,0.80
2022-08-10T10:14:01.821Z,1.40
2022-08-10T10:16:47.401Z,1.58
2022-08-10T10:19:44.499Z,0.75
2022-08-10T10:22:27.729Z,1.00
2022-08-10T10:25:02.834Z,0.95
2022-08-10T10:27:59.453Z,1.50
2022-08-10T10:30:37.678Z,1.90
2022-08-10T10:33:14.365Z,1.35
2022-08-10T10:35:49.022Z,0.95
2022-08-10T10:38:18.007Z,0.90
2022-08-10T10:40:53.890Z,0.73
2022-08-10T10:43:32.557Z,1.80
2022-08-10T10:46:12.728Z,0.80
2022-08-10T10:48:48.915Z,1.00
2022-08-10T10:51:22.610Z,0.47
2022-08-10T10:53:57.847Z,1.10
2022-08-10T10:56:36.503Z,0.88
2022-08-10T10:59:53.853Z,1.48
2022-08-10T11:02:18.622Z,0.82
2022-08-10T11:04:57.042Z,0.70
2022-08-10T11:07:33.798Z,0.80
2022-08-10T11:10:31.811Z,0.70
2022-08-10T11:14:22.958Z,0.82
2022-08-10T11:16:02.473Z,0.50
2022-08-10T11:18:55.526Z,0.63
2022-08-10T11:21:34.962Z,0.73
2022-08-10T11:24:47.742Z,0.50
2022-08-10T11:27:06.735Z,0.82
2022-08-10T11:29:45.313Z,0.63
2022-08-10T11:32:24.701Z,0.40
2022-08-10T11:35:10.610Z,0.47
2022-08-10T11:38:28.562Z,0.68
2022-08-10T11:40:43.250Z,0.70
2022-08-10T11:43:15.955Z,0.70
2022-08-10T11:45:52.361Z,1.80
2022-08-10T11:48:53.283Z,0.90
2022-08-10T11:51:26.348Z,1.30
2022-08-10T11:53:59.716Z,1.70
2022-08-10T11:56:34.464Z,0.75
2022-08-10T11:59:20.022Z,1.00
2022-08-10T12:01:51.795Z,0.55
2022-08-10T12:04:23.328Z,0.50
2022-08-10T12:06:56.089Z,0.70
2022-08-10T12:10:10.024Z,0.73
2022-08-10T12:12:14.966Z,0.40
2022-08-10T12:14:49.662Z,1.02
2022-08-10T12:17:21.465Z,0.60
2022-08-10T12:20:02.407Z,1.15
2022-08-10T12:22:39.892Z,0.80
2022-08-10T12:25:54.933Z,0.55
2022-08-10T12:28:10.334Z,1.10
2022-08-10T12:30:46.504Z,0.80
2022-08-10T12:33:22.189Z,1.10
2022-08-10T12:36:17.438Z,0.63
2022-08-10T12:38:58.208Z,0.50
2022-08-10T12:41:44.293Z,0.50
2022-08-10T12:44:15.893Z,0.20
2022-08-10T12:46:55.939Z,0.50
2022-08-10T12:49:31.563Z,0.47
2022-08-10T12:52:06.109Z,0.32
2022-08-10T12:54:37.981Z,0.40
2022-08-10T12:57:10.103Z,0.80
2022-08-10T12:59:43.343Z,1.08
2022-08-10T13:02:19.584Z,0.90
2022-08-10T13:04:51.686Z,0.80
2022-08-10T13:08:05.321Z,0.60
2022-08-10T13:10:18.262Z,1.00
2022-08-10T13:12:50.062Z,4.20
2022-08-10T13:15:43.237Z,4.00
2022-08-10T13:18:18.733Z,1.60
2022-08-10T13:20:51.966Z,0.77
2022-08-10T13:23:24.529Z,0.47
2022-08-10T13:25:57.803Z,0.60
2022-08-10T13:28:35.706Z,0.75
2022-08-10T13:31:11.381Z,1.30
2022-08-10T13:34:40.656Z,1.08
2022-08-10T13:36:38.978Z,1.35
2022-08-10T13:39:08.186Z,0.50
2022-08-10T13:41:41.074Z,0.40
2022-08-10T13:44:12.275Z,0.60
2022-08-10T13:46:42.318Z,0.57
2022-08-10T13:49:12.178Z,0.65
2022-08-10T13:51:56.753Z,0.77
2022-08-10T13:54:28.467Z,0.40
2022-08-10T13:56:58.896Z,0.28
2022-08-10T14:00:36.267Z,0.60
2022-08-10T14:02:26.115Z,1.95
2022-08-10T14:04:56.617Z,0.77
2022-08-10T14:07:27.229Z,0.70
2022-08-10T14:10:04.978Z,0.68
2022-08-10T14:12:36.569Z,0.43
2022-08-10T14:15:08.193Z,0.43
2022-08-10T14:17:42.592Z,0.40
2022-08-10T14:20:17.973Z,0.70
2022-08-10T14:22:49.000Z,0.60
2022-08-10T14:25:17.330Z,0.80
2022-08-10T14:28:01.797Z,0.65
2022-08-10T14:30:33.321Z,0.68
2022-08-10T14:33:04.879Z,0.60
2022-08-10T14:36:21.251Z,0.70
2022-08-10T14:38:29.014Z,0.63
2022-08-10T14:40:59.984Z,1.10
2022-08-10T14:43:35.921Z,0.40
2022-08-10T14:46:06.909Z,0.82
2022-08-10T14:48:39.354Z,0.60
2022-08-10T14:51:08.552Z,0.80
2022-08-10T14:53:38.009Z,1.08
2022-08-10T14:56:10.128Z,1.30
2022-08-10T14:59:06.017Z,0.93
2022-08-10T15:02:01.289Z,0.63
2022-08-10T15:04:24.926Z,0.98
2022-08-10T15:06:56.236Z,0.82
2022-08-10T15:09:59.171Z,0.70
2022-08-10T15:12:26.387Z,0.50
2022-08-10T15:15:01.156Z,0.40
2022-08-10T15:17:35.000Z,0.40
2022-08-10T15:20:13.836Z,0.68
2022-08-10T15:22:50.164Z,0.20
2022-08-10T15:25:24.706Z,0.52
2022-08-10T15:27:57.422Z,0.63
2022-08-10T15:30:32.045Z,0.40
2022-08-10T15:33:57.558Z,0.45
2022-08-10T15:36:30.095Z,0.40
2022-08-10T15:39:01.405Z,0.40
2022-08-10T15:41:57.553Z,0.47
2022-08-10T15:44:37.869Z,0.65
2022-08-10T15:47:10.644Z,0.50
2022-08-10T15:49:45.763Z,0.70
2022-08-10T15:52:39.665Z,0.90
2022-08-10T15:55:43.844Z,0.45
2022-08-10T15:58:07.578Z,0.60
2022-08-10T16:00:40.478Z,0.52
2022-08-10T16:03:17.079Z,0.52
2022-08-10T16:06:01.876Z,0.30
2022-08-10T16:08:56.491Z,0.60
2022-08-10T16:11:42.234Z,0.65
2022-08-10T16:14:15.736Z,0.30
2022-08-10T16:16:49.416Z,0.30
2022-08-10T16:19:22.399Z,0.55
2022-08-10T16:21:58.141Z,0.47
2022-08-10T16:24:30.923Z,0.52
2022-08-10T16:27:01.846Z,0.30
2022-08-10T16:29:30.262Z,0.25
2022-08-10T16:32:03.036Z,0.20
2022-08-10T16:34:35.792Z,0.28
2022-08-10T16:37:07.095Z,0.47
2022-08-10T16:39:58.105Z,0.20
2022-08-10T16:42:28.720Z,0.32
2022-08-10T16:45:02.496Z,0.28
2022-08-10T16:47:33.971Z,0.25
2022-08-10T16:50:05.735Z,0.50
2022-08-10T16:52:34.636Z,0.60
2022-08-10T16:55:17.246Z,0.50
2022-08-10T16:57:55.364Z,0.82
2022-08-10T17:00:25.733Z,0.93
2022-08-10T17:02:59.435Z,0.25
2022-08-10T17:06:09.830Z,0.30
2022-08-10T17:08:21.792Z,0.40
2022-08-10T17:10:52.141Z,0.25
2022-08-10T17:13:23.530Z,0.40
2022-08-10T17:15:57.571Z,0.30
2022-08-10T17:18:30.277Z,0.43
2022-08-10T17:21:01.769Z,0.40
2022-08-10T17:23:33.773Z,0.38
2022-08-10T17:26:04.250Z,0.40
2022-08-10T17:28:34.673Z,0.25
2022-08-10T17:31:51.622Z,0.45
2022-08-10T17:34:01.205Z,0.20
2022-08-10T17:36:35.347Z,0.32
2022-08-10T17:39:04.499Z,0.40
2022-08-10T17:41:37.637Z,0.10
2022-08-10T17:44:06.874Z,0.20
2022-08-10T17:46:38.794Z,0.85
2022-08-10T17:49:09.053Z,0.30
2022-08-10T17:51:40.638Z,0.20
2022-08-10T17:54:15.904Z,0.98
2022-08-10T17:56:43.996Z,0.20
2022-08-10T17:59:17.478Z,0.40
2022-08-10T18:01:58.689Z,0.40
2022-08-10T18:04:41.619Z,0.30
2022-08-10T18:07:13.311Z,0.10
2022-08-10T18:09:46.602Z,0.20
2022-08-10T18:12:19.045Z,0.20
2022-08-10T18:14:51.061Z,0.10
2022-08-10T18:17:21.966Z,0.20
2022-08-10T18:19:54.275Z,0.13
2022-08-10T18:22:24.912Z,0.25
2022-08-10T18:24:53.939Z,0.30
2022-08-10T18:27:22.969Z,0.38
2022-08-10T18:30:14.548Z,0.30
2022-08-10T18:32:49.079Z,1.55
2022-08-10T18:35:18.694Z,0.10
2022-08-10T18:37:51.756Z,0.40
2022-08-10T18:40:20.624Z,0.30
2022-08-10T18:43:08.749Z,0.38
2022-08-10T18:45:57.009Z,0.28
2022-08-10T18:48:35.278Z,0.30
2022-08-10T18:51:06.382Z,0.60
2022-08-10T18:53:38.095Z,0.30
2022-08-10T18:56:19.821Z,0.30
2022-08-10T18:59:02.882Z,0.47
2022-08-10T19:01:47.505Z,0.30
2022-08-10T19:04:30.565Z,0.40
2022-08-10T19:07:29.940Z,0.28
2022-08-10T19:10:09.534Z,0.20
2022-08-10T19:12:45.613Z,0.40
2022-08-10T19:15:22.508Z,0.30
2022-08-10T19:18:06.120Z,0.40
2022-08-10T19:20:42.381Z,0.30
2022-08-10T19:23:18.759Z,0.30
2022-08-10T19:26:37.925Z,0.32
2022-08-10T19:28:55.419Z,0.50
2022-08-10T19:31:44.384Z,0.20
2022-08-10T19:34:35.393Z,0.30
2022-08-10T19:37:11.099Z,0.40
2022-08-10T19:39:54.437Z,0.57
2022-08-10T19:42:31.896Z,0.30
2022-08-10T19:45:07.584Z,0.30
2022-08-10T19:47:42.098Z,0.30
2022-08-10T19:50:15.094Z,0.22
2022-08-10T19:52:50.529Z,0.30
2022-08-10T19:55:26.364Z,0.40
2022-08-10T19:58:00.875Z,0.20
2022-08-10T20:00:41.947Z,0.32
2022-08-10T20:03:17.930Z,0.25
2022-08-10T20:06:13.081Z,0.28
2022-08-10T20:08:48.005Z,0.13
2022-08-10T20:11:45.243Z,0.40
2022-08-10T20:14:21.536Z,0.30
2022-08-10T20:16:53.477Z,0.10
2022-08-10T20:19:52.736Z,0.20
2022-08-10T20:22:29.579Z,0.32
2022-08-10T20:25:02.933Z,0.38
2022-08-10T20:28:14.596Z,0.40
2022-08-10T20:30:29.917Z,0.35
2022-08-10T20:33:01.734Z,0.40
2022-08-10T20:35:41.136Z,0.20
2022-08-10T20:38:11.612Z,1.35
2022-08-10T20:40:45.201Z,0.32
2022-08-10T20:43:22.241Z,0.50
2022-08-10T20:46:08.473Z,0.40
2022-08-10T20:48:43.346Z,0.38
2022-08-10T20:51:16.023Z,0.38
2022-08-10T20:53:49.284Z,0.40
2022-08-10T20:56:27.701Z,0.80
2022-08-10T20:59:09.266Z,0.40
2022-08-10T21:02:01.534Z,0.40
2022-08-10T21:04:48.821Z,0.77
2022-08-10T21:08:00.349Z,0.40
2022-08-10T21:10:39.020Z,0.30
2022-08-10T21:13:22.186Z,0.40
2022-08-10T21:16:04.481Z,0.30
2022-08-10T21:18:59.790Z,0.57
2022-08-10T21:21:59.538Z,0.50
2022-08-10T21:24:36.457Z,0.30
2022-08-10T21:27:13.248Z,0.50
2022-08-10T21:29:55.989Z,0.47
2022-08-10T21:32:39.159Z,1.95
2022-08-10T21:35:37.807Z,0.68
2022-08-10T21:38:12.258Z,1.03
2022-08-10T21:41:56.959Z,0.43
2022-08-10T21:44:49.420Z,0.50
2022-08-10T21:48:16.455Z,0.40
2022-08-10T21:51:05.944Z,0.57
2022-08-10T21:53:57.527Z,0.40
2022-08-10T21:56:50.463Z,0.30
2022-08-10T21:59:46.168Z,0.40
2022-08-10T22:02:40.854Z,0.50
2022-08-10T22:05:38.988Z,0.40
2022-08-10T22:08:28.209Z,0.57
2022-08-10T22:11:16.193Z,0.50
2022-08-10T22:18:03.417Z,0.60
2022-08-10T22:20:25.045Z,0.38
2022-08-10T22:23:38.633Z,0.40
2022-08-10T22:26:37.786Z,0.30
2022-08-10T22:29:43.049Z,0.38
2022-08-10T22:31:29.054Z,1.03
2022-08-10T22:32:36.473Z,0.40
2022-08-10T22:35:41.744Z,0.50
2022-08-10T22:38:38.496Z,0.50
2022-08-10T22:41:32.301Z,1.43
2022-08-10T22:44:19.858Z,0.57
2022-08-10T22:47:06.908Z,0.40
2022-08-10T22:49:34.308Z,0.45
2022-08-10T22:52:09.666Z,0.40
2022-08-10T22:55:03.878Z,0.30
2022-08-10T22:57:51.116Z,0.50
2022-08-10T23:00:29.454Z,0.40
2022-08-10T23:03:08.759Z,0.70
2022-08-10T23:05:39.459Z,0.50
2022-08-10T23:08:29.492Z,0.43
2022-08-10T23:11:03.947Z,0.47
2022-08-10T23:13:38.574Z,0.40
2022-08-10T23:16:32.772Z,0.57
2022-08-10T23:19:11.231Z,0.40
2022-08-10T23:22:03.111Z,0.47
2022-08-10T23:24:37.134Z,0.50
2022-08-10T23:27:12.050Z,0.50
2022-08-10T23:30:10.706Z,0.63
2022-08-10T23:32:38.738Z,0.80
2022-08-10T23:36:29.742Z,0.37
2022-08-10T23:38:02.953Z,0.60
2022-08-10T23:40:31.335Z,0.50
2022-08-10T23:43:00.726Z,0.70
2022-08-10T23:45:53.861Z,0.50
2022-08-10T23:48:24.093Z,0.40
2022-08-10T23:50:58.583Z,0.60
2022-08-10T23:53:30.075Z,0.70
2022-08-10T23:56:08.978Z,0.40
2022-08-10T23:58:41.062Z,0.50
